Res Puerto Real, Puerto Rico
Current Conditions -  °F | °C
As of 3:43 AM on Monday 22 Dec 2014 (Local Time) from TJNR Reporting Station
Overcast Overcast  
Wind Chill: 75°   Ceiling: 2600
Heat Index: 75°   Visibility: 10mi
Dew Point: 69°   Wind: 5mph
Humidity: 82%   Direction: 340°NNW
Pressure: 30.03"   Gusts: NA
Location:  18.3201°N, 65.6502°W
Report Text: TJNR 220743Z AUTO 34004KT 10SM BKN026 OVC034 24/21 A3003 RMK AO2 T02390206 $
Loading
Personal Weather Stations






























Interactive Weather Map New forecast layout! Learn more

10-Day Weather Forecast

Advertisements
Track Severe Weather on mobile